Terminal Aerodrome Forecast
Issued by NWS Pueblo, CO

Home | Current Version | Previous Version | Text Only | Print | Product List | Glossary On
Versions: 1 2 3 4 5 6 7 8 9 10 11 12 13 14 15 16
000
FTUS45 KPUB 192323
TAFALS
TAF
KALS 192323Z 2000/2024 19012KT P6SM SCT080 BKN200
     FM200100 11005KT P6SM VCSH SCT050 BKN080
      TEMPO 2002/2006 5SM -SHRA BKN030
     FM201000 VRB05KT P6SM VCSH BKN030
     FM201700 01009KT P6SM VCSH BKN030
     FM202200 01012KT P6SM FEW050 SCT080=

USA.gov is the U.S. government's official web portal to all federal, state and local government web resources and services.